createdAt,value
2018-02-08T00:00:30.615Z,100276.46
2018-02-08T00:02:58.062Z,100275.72
2018-02-08T00:05:25.554Z,100278.80
2018-02-08T00:07:53.013Z,100276.58
2018-02-08T00:10:20.458Z,100283.38
2018-02-08T00:12:47.922Z,100282.16
2018-02-08T00:15:15.374Z,100278.06
2018-02-08T00:17:42.875Z,100278.34
2018-02-08T00:20:10.350Z,100277.33
2018-02-08T00:22:45.785Z,100281.05
2018-02-08T00:25:13.259Z,100281.26
2018-02-08T00:27:40.713Z,100278.19
2018-02-08T00:30:08.162Z,100277.39
2018-02-08T00:32:35.606Z,100285.77
2018-02-08T00:35:03.051Z,100279.48
2018-02-08T00:37:30.511Z,100277.63
2018-02-08T00:39:57.973Z,100275.11
2018-02-08T00:42:25.418Z,100273.69
2018-02-08T00:44:52.866Z,100277.09
2018-02-08T00:47:20.343Z,100280.64
2018-02-08T00:49:47.787Z,100280.23
2018-02-08T00:52:15.225Z,100282.08
2018-02-08T00:54:42.671Z,100278.63
2018-02-08T00:57:10.119Z,100285.38
2018-02-08T00:59:37.558Z,100281.79
2018-02-08T01:02:05.006Z,100285.04
2018-02-08T01:04:32.467Z,100285.16
2018-02-08T01:06:59.922Z,100282.02
2018-02-08T01:09:27.371Z,100283.32
2018-02-08T01:11:54.834Z,100277.05
2018-02-08T01:14:22.808Z,100282.19
2018-02-08T01:16:50.269Z,100285.73
2018-02-08T01:19:17.731Z,100286.41
2018-02-08T01:21:45.183Z,100287.61
2018-02-08T01:24:12.630Z,100284.63
2018-02-08T01:26:40.070Z,100282.88
2018-02-08T01:29:07.529Z,100284.19
2018-02-08T01:31:34.976Z,100281.16
2018-02-08T01:34:02.440Z,100276.17
2018-02-08T01:36:29.882Z,100285.36
2018-02-08T01:38:57.332Z,100279.56
2018-02-08T01:41:24.778Z,100277.55
2018-02-08T01:43:52.271Z,100283.43
2018-02-08T01:46:19.710Z,100285.61
2018-02-08T01:48:47.160Z,100281.95
2018-02-08T01:51:14.606Z,100286.80
2018-02-08T01:53:42.042Z,100292.68
2018-02-08T01:56:09.513Z,100293.83
2018-02-08T01:58:36.957Z,100293.66
2018-02-08T02:01:04.410Z,100300.11
2018-02-08T02:03:31.849Z,100297.48
2018-02-08T02:05:59.311Z,100294.86
2018-02-08T02:08:26.745Z,100295.94
2018-02-08T02:10:54.233Z,100294.95
2018-02-08T02:13:21.669Z,100293.24
2018-02-08T02:15:49.105Z,100288.22
2018-02-08T02:18:16.555Z,100288.01
2018-02-08T02:20:44.006Z,100285.72
2018-02-08T02:23:11.449Z,100285.20
2018-02-08T02:25:38.900Z,100285.79
2018-02-08T02:28:06.345Z,100287.02
2018-02-08T02:30:33.788Z,100296.00
2018-02-08T02:33:01.242Z,100293.55
2018-02-08T02:35:28.699Z,100294.95
2018-02-08T02:37:56.165Z,100302.44
2018-02-08T02:40:23.613Z,100308.78
2018-02-08T02:42:51.067Z,100309.92
2018-02-08T02:45:18.538Z,100311.93
2018-02-08T02:47:45.983Z,100314.94
2018-02-08T02:50:13.434Z,100307.69
2018-02-08T02:52:40.871Z,100312.09
2018-02-08T02:55:08.324Z,100313.07
2018-02-08T02:57:35.758Z,100314.02
2018-02-08T03:00:03.222Z,100318.48
2018-02-08T03:02:30.662Z,100316.94
2018-02-08T03:04:58.707Z,100315.17
2018-02-08T03:07:26.149Z,100321.22
2018-02-08T03:09:53.593Z,100319.90
2018-02-08T03:12:21.053Z,100314.95
2018-02-08T03:14:48.493Z,100317.87
2018-02-08T03:17:15.928Z,100323.05
2018-02-08T03:19:43.365Z,100323.62
2018-02-08T03:22:10.822Z,100327.33
2018-02-08T03:24:38.257Z,100339.21
2018-02-08T03:27:05.714Z,100333.72
2018-02-08T03:29:33.147Z,100339.72
2018-02-08T03:32:00.608Z,100340.00
2018-02-08T03:34:28.072Z,100339.78
2018-02-08T03:36:55.524Z,100342.17
2018-02-08T03:39:22.989Z,100346.52
2018-02-08T03:41:50.454Z,100351.03
2018-02-08T03:44:17.884Z,100346.34
2018-02-08T03:46:45.330Z,100346.52
2018-02-08T03:49:12.770Z,100346.39
2018-02-08T03:51:40.247Z,100348.22
2018-02-08T03:54:07.703Z,100346.95
2018-02-08T03:56:35.132Z,100350.10
2018-02-08T03:59:02.588Z,100344.56
2018-02-08T04:01:30.043Z,100350.56
2018-02-08T04:03:57.530Z,100350.33
2018-02-08T04:06:24.966Z,100343.48
2018-02-08T04:08:52.424Z,100353.66
2018-02-08T04:11:19.859Z,100350.41
2018-02-08T04:13:47.312Z,100351.89
2018-02-08T04:16:14.756Z,100352.40
2018-02-08T04:18:42.242Z,100347.37
2018-02-08T04:21:09.691Z,100352.75
2018-02-08T04:23:37.132Z,100353.66
2018-02-08T04:26:04.582Z,100358.45
2018-02-08T04:28:32.029Z,100353.83
2018-02-08T04:30:59.479Z,100357.88
2018-02-08T04:33:26.912Z,100358.21
2018-02-08T04:35:54.375Z,100352.27
2018-02-08T04:41:48.175Z,100357.99
2018-02-08T04:44:27.450Z,100363.17
2018-02-08T04:47:07.001Z,100366.16
2018-02-08T04:49:34.562Z,100371.11
2018-02-08T04:52:02.056Z,100374.42
2018-02-08T04:54:29.515Z,100372.88
2018-02-08T04:56:57.021Z,100369.06
2018-02-08T04:59:24.516Z,100374.64
2018-02-08T05:01:52.000Z,100371.80
2018-02-08T05:04:19.580Z,100376.42
2018-02-08T05:06:47.049Z,100377.97
2018-02-08T05:09:14.524Z,100380.52
2018-02-08T05:11:42.021Z,100389.59
2018-02-08T05:14:09.492Z,100379.45
2018-02-08T05:16:37.051Z,100386.84
2018-02-08T05:19:04.616Z,100390.22
2018-02-08T05:21:32.113Z,100392.40
2018-02-08T05:23:59.616Z,100401.42
2018-02-08T05:26:27.091Z,100397.14
2018-02-08T05:28:54.749Z,100408.03
2018-02-08T05:31:22.235Z,100406.78
2018-02-08T05:33:49.728Z,100402.32
2018-02-08T05:36:17.201Z,100404.67
2018-02-08T05:38:44.684Z,100404.53
2018-02-08T05:41:12.158Z,100403.45
2018-02-08T05:43:39.659Z,100397.34
2018-02-08T05:46:07.126Z,100395.20
2018-02-08T05:48:34.668Z,100405.67
2018-02-08T05:51:02.254Z,100403.55
2018-02-08T05:53:29.734Z,100404.89
2018-02-08T05:55:57.240Z,100408.87
2018-02-08T05:58:24.714Z,100407.52
2018-02-08T06:00:52.191Z,100417.92
2018-02-08T06:03:19.679Z,100409.95
2018-02-08T06:05:47.192Z,100412.31
2018-02-08T06:08:14.674Z,100417.56
2018-02-08T06:10:42.141Z,100412.45
2018-02-08T06:13:09.624Z,100413.83
2018-02-08T06:15:37.105Z,100416.11
2018-02-08T06:18:04.593Z,100410.69
2018-02-08T06:20:32.115Z,100423.74
2018-02-08T06:22:59.592Z,100417.91
2018-02-08T06:25:27.081Z,100421.45
2018-02-08T06:27:54.628Z,100425.06
2018-02-08T06:30:22.141Z,100435.50
2018-02-08T06:32:49.664Z,100444.80
2018-02-08T06:35:17.413Z,100437.91
2018-02-08T06:37:44.890Z,100438.50
2018-02-08T06:40:12.365Z,100440.59
2018-02-08T06:42:39.840Z,100445.61
2018-02-08T06:45:07.319Z,100446.81
2018-02-08T06:47:34.793Z,100455.44
2018-02-08T06:50:02.300Z,100455.22
2018-02-08T06:52:29.767Z,100456.49
2018-02-08T06:54:57.322Z,100459.93
2018-02-08T06:57:24.783Z,100461.69
2018-02-08T06:59:52.327Z,100463.53
2018-02-08T07:02:19.799Z,100468.78
2018-02-08T07:04:47.386Z,100473.75
2018-02-08T07:07:14.949Z,100471.68
2018-02-08T07:09:42.419Z,100475.27
2018-02-08T07:12:10.014Z,100475.01
2018-02-08T07:14:37.573Z,100479.19
2018-02-08T07:17:05.144Z,100479.31
2018-02-08T07:19:32.604Z,100486.77
2018-02-08T07:22:00.077Z,100489.30
2018-02-08T07:24:27.660Z,100482.05
2018-02-08T07:26:55.227Z,100488.63
2018-02-08T07:29:22.723Z,100499.98
2018-02-08T07:31:50.263Z,100490.77
2018-02-08T07:34:17.849Z,100498.09
2018-02-08T07:36:45.452Z,100497.12
2018-02-08T07:39:12.941Z,100498.73
2018-02-08T07:41:40.441Z,100502.57
2018-02-08T07:44:07.934Z,100499.60
2018-02-08T07:46:35.537Z,100501.31
2018-02-08T07:49:03.496Z,100499.36
2018-02-08T07:51:30.973Z,100500.98
2018-02-08T07:53:59.482Z,100496.34
2018-02-08T07:56:27.042Z,100499.25
2018-02-08T07:58:54.551Z,100501.90
2018-02-08T08:01:22.054Z,100499.61
2018-02-08T08:03:49.620Z,100497.80
2018-02-08T08:06:17.083Z,100502.76
2018-02-08T08:08:44.566Z,100497.95
2018-02-08T08:11:12.053Z,100501.39
2018-02-08T08:13:39.565Z,100501.22
2018-02-08T08:16:07.060Z,100514.13
2018-02-08T08:18:34.547Z,100507.11
2018-02-08T08:21:02.041Z,100510.37
2018-02-08T08:23:29.545Z,100504.02
2018-02-08T08:25:57.033Z,100501.04
2018-02-08T08:28:24.513Z,100498.45
2018-02-08T08:30:51.999Z,100507.08
2018-02-08T08:33:19.564Z,100500.26
2018-02-08T08:35:47.182Z,100504.62
2018-02-08T08:38:14.683Z,100509.05
2018-02-08T08:40:42.202Z,100506.52
2018-02-08T08:43:09.707Z,100504.87
2018-02-08T08:45:37.247Z,100507.69
2018-02-08T08:48:04.749Z,100501.95
2018-02-08T08:50:32.229Z,100501.47
2018-02-08T08:52:59.740Z,100504.87
2018-02-08T08:55:27.241Z,100507.80
2018-02-08T08:57:54.767Z,100502.64
2018-02-08T09:00:22.255Z,100513.20
2018-02-08T09:02:49.761Z,100511.59
2018-02-08T09:05:17.263Z,100513.82
2018-02-08T09:07:44.838Z,100516.67
2018-02-08T09:10:12.363Z,100524.91
2018-02-08T09:12:39.853Z,100531.45
2018-02-08T09:15:07.374Z,100534.05
2018-02-08T09:17:34.901Z,100534.78
2018-02-08T09:20:02.410Z,100534.46
2018-02-08T09:22:29.930Z,100529.05
2018-02-08T09:24:58.278Z,100528.66
2018-02-08T09:27:25.867Z,100532.71
2018-02-08T09:29:53.460Z,100532.50
2018-02-08T09:32:21.173Z,100530.67
2018-02-08T09:34:48.750Z,100535.87
2018-02-08T09:37:16.399Z,100529.57
2018-02-08T09:39:43.903Z,100535.94
2018-02-08T09:42:11.392Z,100545.59
2018-02-08T09:44:39.000Z,100536.52
2018-02-08T09:47:06.792Z,100534.41
2018-02-08T09:49:34.285Z,100547.52
2018-02-08T09:52:01.797Z,100548.36
2018-02-08T09:54:29.655Z,100551.23
2018-02-08T09:56:57.222Z,100550.27
2018-02-08T09:59:25.713Z,100543.40
2018-02-08T10:01:53.214Z,100547.87
2018-02-08T10:04:20.683Z,100551.02
2018-02-08T10:06:48.170Z,100549.39
2018-02-08T10:09:15.641Z,100553.94
2018-02-08T10:11:43.123Z,100556.27
2018-02-08T10:14:10.597Z,100555.87
2018-02-08T10:16:38.110Z,100550.58
2018-02-08T10:19:05.577Z,100545.13
2018-02-08T10:21:33.127Z,100548.77
2018-02-08T10:24:00.680Z,100545.64
2018-02-08T10:26:28.209Z,100544.20
2018-02-08T10:28:55.773Z,100543.59
2018-02-08T10:31:23.225Z,100544.52
2018-02-08T10:33:50.722Z,100539.23
2018-02-08T10:36:18.217Z,100542.59
2018-02-08T10:38:45.738Z,100538.89
2018-02-08T10:41:13.212Z,100537.72
2018-02-08T10:43:40.798Z,100541.46
2018-02-08T10:46:08.283Z,100540.95
2018-02-08T10:48:35.745Z,100542.86
2018-02-08T10:51:03.214Z,100541.23
2018-02-08T10:53:30.683Z,100541.27
2018-02-08T10:55:58.196Z,100541.33
2018-02-08T10:58:25.716Z,100544.36
2018-02-08T11:00:53.210Z,100539.38
2018-02-08T11:03:20.707Z,100538.09
2018-02-08T11:05:48.193Z,100534.74
2018-02-08T11:08:15.657Z,100533.76
2018-02-08T11:10:43.150Z,100536.72
2018-02-08T11:13:10.617Z,100536.54
2018-02-08T11:15:38.115Z,100542.96
2018-02-08T11:18:05.591Z,100547.10
2018-02-08T11:20:33.153Z,100543.44
2018-02-08T11:23:00.650Z,100542.14
2018-02-08T11:25:28.123Z,100539.67
2018-02-08T11:27:55.614Z,100539.78
2018-02-08T11:30:23.121Z,100538.91
2018-02-08T11:32:50.619Z,100539.94
2018-02-08T11:35:18.201Z,100537.89
2018-02-08T11:37:45.703Z,100532.22
2018-02-08T11:40:13.203Z,100533.22
2018-02-08T11:42:40.744Z,100528.86
2018-02-08T11:47:42.158Z,100533.09
2018-02-08T11:50:09.645Z,100527.31
2018-02-08T11:52:37.115Z,100520.86
2018-02-08T11:55:04.622Z,100530.81
2018-02-08T11:57:32.099Z,100531.59
2018-02-08T11:59:59.611Z,100528.62
2018-02-08T12:02:27.166Z,100542.57
2018-02-08T12:04:54.658Z,100541.55
2018-02-08T12:07:22.121Z,100537.31
2018-02-08T12:09:49.713Z,100537.62
2018-02-08T12:12:17.205Z,100535.78
2018-02-08T12:14:44.689Z,100537.52
2018-02-08T12:17:12.235Z,100543.28
2018-02-08T12:19:39.722Z,100539.13
2018-02-08T12:22:07.182Z,100540.97
2018-02-08T12:24:34.664Z,100546.36
2018-02-08T12:27:02.434Z,100537.33
2018-02-08T12:29:29.930Z,100536.30
2018-02-08T12:31:57.409Z,100531.84
2018-02-08T12:34:24.880Z,100534.05
2018-02-08T12:36:52.354Z,100535.68
2018-02-08T12:39:19.824Z,100529.59
2018-02-08T12:41:47.341Z,100531.23
2018-02-08T12:44:14.801Z,100529.00
2018-02-08T12:46:42.382Z,100529.81
2018-02-08T12:49:09.952Z,100524.44
2018-02-08T12:51:37.480Z,100520.16
2018-02-08T12:54:04.938Z,100530.59
2018-02-08T12:56:32.483Z,100526.44
2018-02-08T12:58:59.953Z,100520.16
2018-02-08T13:01:27.404Z,100518.25
2018-02-08T13:03:54.879Z,100523.51
2018-02-08T13:06:22.345Z,100521.69
2018-02-08T13:08:49.928Z,100519.15
2018-02-08T13:11:17.516Z,100518.34
2018-02-08T13:13:44.986Z,100508.48
2018-02-08T13:16:12.558Z,100510.81
2018-02-08T13:18:40.013Z,100510.41
2018-02-08T13:21:07.649Z,100511.25
2018-02-08T13:23:35.128Z,100512.54
2018-02-08T13:26:02.600Z,100514.16
2018-02-08T13:28:30.091Z,100515.09
2018-02-08T13:30:57.608Z,100507.34
2018-02-08T13:33:25.090Z,100509.55
2018-02-08T13:35:52.603Z,100514.74
2018-02-08T13:38:20.113Z,100507.97
2018-02-08T13:40:49.994Z,100499.34
2018-02-08T13:43:17.504Z,100503.88
2018-02-08T13:45:44.991Z,100495.17
2018-02-08T13:48:14.940Z,100507.79
2018-02-08T13:50:59.224Z,100501.16
2018-02-08T13:56:31.470Z,100504.66
2018-02-08T13:59:00.817Z,100503.62
2018-02-08T14:01:32.064Z,100509.11
2018-02-08T14:03:59.575Z,100503.62
2018-02-08T14:06:27.069Z,100500.81
2018-02-08T14:08:54.613Z,100504.48
2018-02-08T14:11:22.107Z,100501.24
2018-02-08T14:13:49.571Z,100500.03
2018-02-08T14:16:17.050Z,100506.23
2018-02-08T14:18:44.578Z,100508.41
2018-02-08T14:21:12.050Z,100511.34
2018-02-08T14:23:39.501Z,100511.02
2018-02-08T14:26:06.985Z,100513.75
2018-02-08T14:28:34.479Z,100511.33
2018-02-08T14:31:02.095Z,100516.01
2018-02-08T14:33:29.632Z,100516.43
2018-02-08T14:35:57.200Z,100510.64
2018-02-08T14:38:24.664Z,100509.93
2018-02-08T14:40:52.243Z,100519.16
2018-02-08T14:43:19.719Z,100516.40
2018-02-08T14:45:47.193Z,100518.84
2018-02-08T14:48:14.764Z,100518.03
2018-02-08T14:50:42.233Z,100521.19
2018-02-08T14:53:09.712Z,100530.62
2018-02-08T14:55:37.266Z,100527.77
2018-02-08T14:58:04.745Z,100533.47
2018-02-08T15:00:32.216Z,100527.97
2018-02-08T15:02:59.710Z,100536.70
2018-02-08T15:05:27.186Z,100536.20
2018-02-08T15:07:54.669Z,100543.92
2018-02-08T15:10:22.129Z,100538.95
2018-02-08T15:12:49.704Z,100534.48
2018-02-08T15:15:17.234Z,100541.06
2018-02-08T15:17:44.705Z,100541.38
2018-02-08T15:20:12.168Z,100534.98
2018-02-08T15:22:39.646Z,100536.50
2018-02-08T15:25:07.140Z,100539.34
2018-02-08T15:27:34.634Z,100540.84
2018-02-08T15:30:04.933Z,100544.61
2018-02-08T15:32:32.498Z,100542.27
2018-02-08T15:35:00.012Z,100547.04
2018-02-08T15:37:27.540Z,100548.27
2018-02-08T15:39:54.991Z,100547.87
2018-02-08T15:42:22.478Z,100553.11
2018-02-08T15:44:49.950Z,100554.75
2018-02-08T15:47:17.422Z,100555.97
2018-02-08T15:49:44.928Z,100558.39
2018-02-08T15:52:12.417Z,100559.41
2018-02-08T15:54:39.888Z,100551.48
2018-02-08T15:57:07.395Z,100551.89
2018-02-08T15:59:34.929Z,100556.46
2018-02-08T16:02:02.395Z,100554.92
2018-02-08T16:04:29.909Z,100549.86
2018-02-08T16:06:57.365Z,100550.36
2018-02-08T16:09:24.853Z,100551.48
2018-02-08T16:11:52.309Z,100549.95
2018-02-08T16:14:19.895Z,100547.91
2018-02-08T16:16:47.360Z,100550.55
2018-02-08T16:19:14.863Z,100552.14
2018-02-08T16:21:42.391Z,100556.47
2018-02-08T16:24:09.873Z,100559.37
2018-02-08T16:26:37.443Z,100565.08
2018-02-08T16:29:05.041Z,100560.29
2018-02-08T16:31:32.553Z,100563.95
2018-02-08T16:34:00.083Z,100566.17
2018-02-08T16:36:27.632Z,100561.72
2018-02-08T16:38:55.237Z,100562.77
2018-02-08T16:41:22.790Z,100562.84
2018-02-08T16:43:50.258Z,100567.12
2018-02-08T16:46:17.747Z,100572.92
2018-02-08T16:48:45.229Z,100576.50
2018-02-08T16:51:12.840Z,100573.84
2018-02-08T16:53:40.314Z,100573.86
2018-02-08T16:56:07.802Z,100577.62
2018-02-08T16:58:35.369Z,100574.27
2018-02-08T17:01:02.888Z,100574.98
2018-02-08T17:03:30.388Z,100571.52
2018-02-08T17:05:57.857Z,100579.02
2018-02-08T17:08:25.365Z,100576.49
2018-02-08T17:10:52.845Z,100580.94
2018-02-08T17:13:20.336Z,100583.16
2018-02-08T17:15:47.811Z,100581.66
2018-02-08T17:18:15.322Z,100585.08
2018-02-08T17:20:42.793Z,100580.91
2018-02-08T17:23:10.278Z,100579.73
2018-02-08T17:25:37.761Z,100588.63
2018-02-08T17:28:05.311Z,100589.03
2018-02-08T17:30:32.739Z,100585.19
2018-02-08T17:33:00.295Z,100594.81
2018-02-08T17:35:27.901Z,100592.23
2018-02-08T17:37:55.400Z,100590.31
2018-02-08T17:40:22.866Z,100593.57
2018-02-08T17:42:50.340Z,100590.34
2018-02-08T17:45:17.853Z,100587.28
2018-02-08T17:47:45.337Z,100590.91
2018-02-08T17:50:12.849Z,100586.69
2018-02-08T17:52:40.414Z,100589.45
2018-02-08T17:55:07.984Z,100585.02
2018-02-08T17:57:35.470Z,100587.14
2018-02-08T18:00:02.948Z,100586.77
2018-02-08T18:02:30.426Z,100585.52
2018-02-08T18:04:57.897Z,100590.39
2018-02-08T18:07:25.393Z,100593.59
2018-02-08T18:09:52.881Z,100595.10
2018-02-08T18:12:20.392Z,100588.97
2018-02-08T18:14:47.855Z,100591.38
2018-02-08T18:17:15.620Z,100584.00
2018-02-08T18:19:43.133Z,100582.32
2018-02-08T18:22:11.880Z,100589.98
2018-02-08T18:24:39.345Z,100582.66
2018-02-08T18:27:06.841Z,100582.45
2018-02-08T18:29:34.414Z,100583.57
2018-02-08T18:32:01.886Z,100578.25
2018-02-08T18:34:29.385Z,100586.04
2018-02-08T18:36:57.026Z,100589.25
2018-02-08T18:39:24.591Z,100592.15
2018-02-08T18:41:52.055Z,100592.44
2018-02-08T18:44:19.633Z,100592.41
2018-02-08T18:46:47.232Z,100594.79
2018-02-08T18:49:14.790Z,100593.62
2018-02-08T18:51:42.361Z,100594.70
2018-02-08T18:54:09.831Z,100596.67
2018-02-08T18:56:37.309Z,100594.58
2018-02-08T18:59:04.871Z,100590.17
2018-02-08T19:01:32.366Z,100589.73
2018-02-08T19:03:59.911Z,100584.91
2018-02-08T19:06:27.500Z,100585.77
2018-02-08T19:08:54.993Z,100580.97
2018-02-08T19:11:22.498Z,100583.64
2018-02-08T19:13:49.964Z,100579.36
2018-02-08T19:16:17.438Z,100582.21
2018-02-08T19:18:44.994Z,100581.70
2018-02-08T19:21:12.475Z,100585.83
2018-02-08T19:23:39.978Z,100588.80
2018-02-08T19:26:07.449Z,100586.11
2018-02-08T19:28:34.929Z,100591.32
2018-02-08T19:31:02.501Z,100590.23
2018-02-08T19:33:29.980Z,100591.14
2018-02-08T19:35:57.472Z,100591.85
2018-02-08T19:38:24.953Z,100587.95
2018-02-08T19:40:52.420Z,100586.23
2018-02-08T19:43:19.950Z,100586.52
2018-02-08T19:45:47.460Z,100586.81
2018-02-08T19:48:14.961Z,100587.73
2018-02-08T19:50:42.463Z,100591.39
2018-02-08T19:53:09.941Z,100589.89
2018-02-08T19:55:37.426Z,100578.67
2018-02-08T19:58:04.921Z,100582.75
2018-02-08T20:00:32.421Z,100579.42
2018-02-08T20:02:59.895Z,100579.43
2018-02-08T20:05:27.372Z,100583.09
2018-02-08T20:07:54.842Z,100586.52
2018-02-08T20:10:22.313Z,100576.41
2018-02-08T20:12:49.881Z,100576.52
2018-02-08T20:15:33.189Z,100577.27
2018-02-08T20:18:00.692Z,100582.22
2018-02-08T20:20:28.278Z,100575.42
2018-02-08T20:22:55.742Z,100576.73
2018-02-08T20:25:28.871Z,100581.38
2018-02-08T20:27:56.352Z,100581.67
2018-02-08T20:30:23.843Z,100577.59
2018-02-08T20:32:51.374Z,100573.08
2018-02-08T20:35:18.848Z,100574.28
2018-02-08T20:37:46.403Z,100569.14
2018-02-08T20:40:23.036Z,100575.09
2018-02-08T20:42:56.187Z,100570.33
2018-02-08T20:45:23.653Z,100573.89
2018-02-08T20:47:51.243Z,100571.14
2018-02-08T20:50:18.751Z,100571.08
2018-02-08T20:52:46.220Z,100566.89
2018-02-08T20:55:13.682Z,100573.98
2018-02-08T20:57:41.147Z,100567.42
2018-02-08T21:00:08.621Z,100576.62
2018-02-08T21:02:36.088Z,100573.58
2018-02-08T21:05:03.615Z,100572.16
2018-02-08T21:07:31.136Z,100573.88
2018-02-08T21:09:58.631Z,100570.67
2018-02-08T21:12:26.106Z,100574.69
2018-02-08T21:14:53.613Z,100571.94
2018-02-08T21:17:21.077Z,100574.45
2018-02-08T21:19:48.563Z,100571.72
2018-02-08T21:22:16.038Z,100568.63
2018-02-08T21:24:43.529Z,100569.77
2018-02-08T21:27:11.026Z,100568.22
2018-02-08T21:29:38.541Z,100569.35
2018-02-08T21:32:06.057Z,100572.08
2018-02-08T21:34:33.554Z,100564.95
2018-02-08T21:37:01.098Z,100564.41
2018-02-08T21:39:28.613Z,100562.17
2018-02-08T21:41:56.088Z,100562.77
2018-02-08T21:44:23.584Z,100567.02
2018-02-08T21:46:51.122Z,100565.39
2018-02-08T21:49:18.840Z,100563.98
2018-02-08T21:51:46.368Z,100557.73
2018-02-08T21:54:13.893Z,100548.47
2018-02-08T21:56:41.454Z,100550.74
2018-02-08T21:59:08.933Z,100545.06
2018-02-08T22:01:36.432Z,100546.44
2018-02-08T22:04:03.905Z,100554.45
2018-02-08T22:06:31.483Z,100556.89
2018-02-08T22:11:32.779Z,100550.72
2018-02-08T22:14:00.275Z,100552.31
2018-02-08T22:16:27.791Z,100547.98
2018-02-08T22:18:55.264Z,100543.31
2018-02-08T22:21:22.754Z,100552.27
2018-02-08T22:23:57.833Z,100547.25
2018-02-08T22:26:25.318Z,100545.84
2018-02-08T22:28:52.795Z,100547.56
2018-02-08T22:31:20.285Z,100542.62
2018-02-08T22:33:47.813Z,100546.75
2018-02-08T22:36:15.399Z,100550.12
2018-02-08T22:38:42.878Z,100549.61
2018-02-08T22:41:10.355Z,100554.38
2018-02-08T22:43:37.877Z,100551.81
2018-02-08T22:46:05.379Z,100559.05
2018-02-08T22:48:32.886Z,100559.50
2018-02-08T22:51:00.480Z,100559.03
2018-02-08T22:53:27.970Z,100562.02
2018-02-08T22:55:55.472Z,100554.72
2018-02-08T22:58:22.976Z,100558.05
2018-02-08T23:00:50.458Z,100555.85
2018-02-08T23:03:17.944Z,100548.66
2018-02-08T23:05:45.417Z,100559.17
2018-02-08T23:08:12.987Z,100550.53
2018-02-08T23:10:40.562Z,100558.10
2018-02-08T23:13:08.045Z,100560.84
2018-02-08T23:15:35.547Z,100557.02
2018-02-08T23:18:03.071Z,100556.94
2018-02-08T23:20:30.693Z,100549.13
2018-02-08T23:22:58.202Z,100549.60
2018-02-08T23:25:25.671Z,100554.68
2018-02-08T23:27:53.261Z,100553.11
2018-02-08T23:30:20.773Z,100552.80
2018-02-08T23:32:48.245Z,100550.04
2018-02-08T23:35:15.748Z,100549.06
2018-02-08T23:37:43.207Z,100546.53
2018-02-08T23:40:10.697Z,100550.10
2018-02-08T23:42:38.174Z,100549.05
2018-02-08T23:45:05.670Z,100550.60
2018-02-08T23:47:33.222Z,100549.89
2018-02-08T23:50:00.712Z,100555.98
2018-02-08T23:52:28.257Z,100549.42
2018-02-08T23:54:55.933Z,100555.84
2018-02-08T23:57:23.397Z,100548.02
2018-02-08T23:59:50.917Z,100554.03
